createdAt,value
2022-12-31T00:00:46.937Z,152.60
2022-12-31T00:03:48.983Z,181.77
2022-12-31T00:06:50.681Z,194.77
2022-12-31T00:09:52.329Z,244.95
2022-12-31T00:12:54.125Z,251.85
2022-12-31T00:15:55.835Z,207.07
2022-12-31T00:19:01.844Z,204.35
2022-12-31T00:22:03.514Z,231.43
2022-12-31T00:25:05.840Z,174.95
2022-12-31T00:28:07.516Z,217.62
2022-12-31T00:31:14.646Z,183.07
2022-12-31T00:34:16.336Z,251.25
2022-12-31T00:37:17.988Z,209.02
2022-12-31T00:40:19.661Z,192.45
2022-12-31T00:43:21.295Z,225.00
2022-12-31T00:46:23.609Z,226.62
2022-12-31T00:49:25.365Z,185.40
2022-12-31T00:52:26.984Z,177.73
2022-12-31T00:55:30.460Z,149.77
2022-12-31T00:58:33.255Z,182.88
2022-12-31T01:01:37.803Z,226.55
2022-12-31T01:04:39.662Z,155.37
2022-12-31T01:07:41.403Z,127.97
2022-12-31T01:11:06.463Z,186.52
2022-12-31T01:14:09.627Z,138.02
2022-12-31T01:17:13.356Z,189.15
2022-12-31T01:20:15.073Z,142.68
2022-12-31T01:23:16.720Z,233.77
2022-12-31T01:26:19.605Z,172.87
2022-12-31T01:29:21.481Z,204.00
2022-12-31T01:32:23.173Z,165.43
2022-12-31T01:35:25.012Z,156.23
2022-12-31T01:38:26.636Z,144.05
2022-12-31T01:41:35.137Z,210.73
2022-12-31T01:44:39.751Z,159.15
2022-12-31T01:47:52.816Z,271.52
2022-12-31T01:50:55.196Z,196.80
2022-12-31T01:53:58.596Z,239.43
2022-12-31T01:57:01.071Z,178.43
2022-12-31T02:00:04.189Z,204.68
2022-12-31T02:03:08.434Z,220.02
2022-12-31T02:06:21.908Z,242.77
2022-12-31T02:09:23.659Z,227.07
2022-12-31T02:12:25.475Z,224.50
2022-12-31T02:16:06.874Z,169.73
2022-12-31T02:19:29.999Z,186.55
2022-12-31T02:23:09.214Z,155.05
2022-12-31T02:26:48.224Z,235.20
2022-12-31T02:30:03.199Z,242.95
2022-12-31T02:33:27.956Z,104.43
2022-12-31T02:36:36.144Z,148.93
2022-12-31T02:39:38.623Z,146.60
2022-12-31T02:42:40.320Z,183.85
2022-12-31T02:45:47.444Z,176.37
2022-12-31T02:49:04.273Z,153.98
2022-12-31T02:52:30.137Z,201.88
2022-12-31T02:56:04.432Z,131.15
2022-12-31T02:59:44.683Z,154.90
2022-12-31T03:02:48.327Z,138.48
2022-12-31T03:05:50.650Z,185.88
2022-12-31T03:09:27.930Z,257.98
2022-12-31T03:12:58.274Z,256.70
2022-12-31T03:15:59.994Z,83.82
2022-12-31T03:19:24.661Z,114.97
2022-12-31T03:22:29.397Z,225.60
2022-12-31T03:25:38.111Z,237.27
2022-12-31T03:28:43.244Z,91.40
2022-12-31T03:31:44.958Z,113.10
2022-12-31T03:34:46.723Z,142.68
2022-12-31T03:37:50.268Z,236.18
2022-12-31T03:40:53.294Z,122.15
2022-12-31T03:43:54.947Z,86.25
2022-12-31T03:46:56.588Z,106.00
2022-12-31T03:49:58.384Z,173.25
2022-12-31T03:53:01.003Z,158.65
2022-12-31T03:56:02.810Z,167.50
2022-12-31T03:59:04.461Z,117.65
2022-12-31T04:02:06.539Z,96.72
2022-12-31T04:05:09.105Z,140.32
2022-12-31T04:08:10.821Z,109.97
2022-12-31T04:11:17.380Z,214.50
2022-12-31T04:14:22.249Z,184.80
2022-12-31T04:17:24.108Z,127.57
2022-12-31T04:20:44.014Z,142.50
2022-12-31T04:23:45.672Z,136.12
2022-12-31T04:26:47.554Z,84.50
2022-12-31T04:29:49.255Z,233.30
2022-12-31T04:32:50.949Z,109.32
2022-12-31T04:35:52.614Z,149.77
2022-12-31T04:38:54.387Z,92.55
2022-12-31T04:41:56.060Z,65.45
2022-12-31T04:44:57.700Z,68.82
2022-12-31T04:47:59.370Z,106.22
2022-12-31T04:51:01.136Z,117.93
2022-12-31T04:54:03.707Z,125.50
2022-12-31T04:57:05.363Z,118.05
2022-12-31T05:00:08.079Z,96.95
2022-12-31T05:03:09.736Z,106.10
2022-12-31T05:06:14.658Z,108.95
2022-12-31T05:09:16.373Z,98.95
2022-12-31T05:12:18.112Z,79.03
2022-12-31T05:15:19.778Z,95.90
2022-12-31T05:18:21.789Z,69.60
2022-12-31T05:21:23.510Z,93.78
2022-12-31T05:24:25.188Z,117.70
2022-12-31T05:27:31.276Z,123.85
2022-12-31T05:30:33.134Z,105.97
2022-12-31T05:33:34.876Z,80.72
2022-12-31T05:36:36.553Z,109.20
2022-12-31T05:39:38.204Z,81.85
2022-12-31T05:42:40.049Z,80.35
2022-12-31T05:45:41.816Z,78.07
2022-12-31T05:48:43.503Z,90.18
2022-12-31T05:51:45.170Z,78.30
2022-12-31T05:54:47.146Z,92.25
2022-12-31T05:57:48.808Z,85.53
2022-12-31T06:00:51.842Z,67.62
2022-12-31T06:03:53.551Z,68.90
2022-12-31T06:06:55.501Z,109.07
2022-12-31T06:09:57.157Z,106.37
2022-12-31T06:12:58.833Z,68.32
2022-12-31T06:16:10.823Z,61.13
2022-12-31T06:19:12.499Z,63.03
2022-12-31T06:22:14.193Z,66.97
2022-12-31T06:25:15.992Z,71.85
2022-12-31T06:28:20.371Z,56.00
2022-12-31T06:31:22.625Z,76.37
2022-12-31T06:34:24.337Z,68.35
2022-12-31T06:37:26.017Z,62.85
2022-12-31T06:40:27.695Z,75.30
2022-12-31T06:43:29.568Z,112.28
2022-12-31T06:46:31.313Z,67.82
2022-12-31T06:49:33.018Z,85.50
2022-12-31T06:52:34.655Z,90.12
2022-12-31T06:55:36.593Z,82.57
2022-12-31T06:58:38.526Z,65.80
2022-12-31T07:02:16.606Z,67.72
2022-12-31T07:05:36.661Z,59.20
2022-12-31T07:08:56.649Z,74.15
2022-12-31T07:12:12.589Z,101.20
2022-12-31T07:15:37.105Z,96.00
2022-12-31T07:19:16.023Z,68.78
2022-12-31T07:22:17.973Z,52.62
2022-12-31T07:25:20.546Z,59.67
2022-12-31T07:28:45.453Z,60.58
2022-12-31T07:32:00.993Z,71.05
2022-12-31T07:35:50.619Z,73.70
2022-12-31T07:39:10.546Z,60.38
2022-12-31T07:42:18.627Z,63.22
2022-12-31T07:45:39.023Z,52.28
2022-12-31T07:48:40.927Z,91.37
2022-12-31T07:51:43.099Z,75.37
2022-12-31T07:54:44.877Z,73.05
2022-12-31T07:58:01.726Z,89.70
2022-12-31T08:01:04.345Z,53.22
2022-12-31T08:04:09.737Z,66.50
2022-12-31T08:07:19.516Z,66.37
2022-12-31T08:10:37.680Z,65.05
2022-12-31T08:13:41.913Z,59.70
2022-12-31T08:16:44.002Z,68.15
2022-12-31T08:19:46.334Z,69.93
2022-12-31T08:22:47.887Z,52.38
2022-12-31T08:26:14.335Z,68.80
2022-12-31T08:29:34.287Z,63.87
2022-12-31T08:32:38.863Z,65.70
2022-12-31T08:35:49.609Z,56.97
2022-12-31T08:39:03.334Z,125.62
2022-12-31T08:42:17.295Z,88.60
2022-12-31T08:45:22.752Z,72.00
2022-12-31T08:48:37.748Z,65.50
2022-12-31T08:51:39.687Z,53.90
2022-12-31T08:54:41.648Z,55.55
2022-12-31T08:58:06.192Z,62.92
2022-12-31T09:01:08.828Z,122.43
2022-12-31T09:04:49.585Z,76.65
2022-12-31T09:08:06.198Z,113.68
2022-12-31T09:11:16.372Z,65.28
2022-12-31T09:14:44.354Z,54.47
2022-12-31T09:17:48.148Z,64.35
2022-12-31T09:20:50.058Z,58.75
2022-12-31T09:23:52.006Z,57.25
2022-12-31T09:27:11.479Z,118.80
2022-12-31T09:30:16.447Z,53.42
2022-12-31T09:33:38.240Z,45.55
2022-12-31T09:36:48.388Z,67.12
2022-12-31T09:39:50.789Z,49.47
2022-12-31T09:43:22.217Z,48.60
2022-12-31T09:46:49.800Z,42.70
2022-12-31T09:50:18.905Z,45.07
2022-12-31T09:53:26.412Z,42.42
2022-12-31T09:59:53.519Z,41.58
2022-12-31T10:03:27.182Z,48.03
2022-12-31T10:06:40.563Z,44.85
2022-12-31T10:10:07.875Z,43.25
2022-12-31T10:13:47.659Z,42.05
2022-12-31T10:16:58.138Z,40.72
2022-12-31T10:20:21.355Z,49.25
2022-12-31T10:23:28.871Z,41.58
2022-12-31T10:29:41.019Z,38.38
2022-12-31T10:33:13.559Z,44.03
2022-12-31T10:36:45.833Z,43.67
2022-12-31T10:40:09.269Z,38.75
2022-12-31T10:43:35.687Z,42.67
2022-12-31T10:47:14.611Z,46.15
2022-12-31T10:53:33.136Z,48.30
2022-12-31T10:56:50.272Z,52.08
2022-12-31T11:00:07.606Z,42.62
2022-12-31T11:03:29.765Z,45.90
2022-12-31T11:07:13.161Z,53.03
2022-12-31T11:10:17.723Z,47.83
2022-12-31T11:13:51.380Z,88.10
2022-12-31T11:17:01.955Z,55.28
2022-12-31T11:20:15.115Z,54.45
2022-12-31T11:23:35.615Z,36.38
2022-12-31T11:26:55.014Z,43.72
2022-12-31T11:29:56.599Z,42.35
2022-12-31T11:33:07.220Z,43.08
2022-12-31T11:36:30.429Z,43.17
2022-12-31T11:39:35.461Z,41.15
2022-12-31T11:42:51.089Z,42.08
2022-12-31T11:46:18.010Z,41.33
2022-12-31T11:49:41.234Z,39.55
2022-12-31T11:53:01.710Z,45.72
2022-12-31T11:56:15.905Z,46.17
2022-12-31T11:59:19.823Z,46.90
2022-12-31T12:02:26.746Z,61.03
2022-12-31T12:05:29.549Z,55.25
2022-12-31T12:08:33.042Z,62.33
2022-12-31T12:11:39.022Z,57.17
2022-12-31T12:14:43.459Z,54.33
2022-12-31T12:17:51.978Z,54.17
2022-12-31T12:20:55.832Z,55.88
2022-12-31T12:24:01.693Z,54.63
2022-12-31T12:27:03.361Z,57.58
2022-12-31T12:30:19.513Z,56.15
2022-12-31T12:33:21.733Z,55.63
2022-12-31T12:36:23.381Z,93.03
2022-12-31T12:39:28.390Z,84.05
2022-12-31T12:42:30.716Z,70.62
2022-12-31T12:45:51.741Z,77.70
2022-12-31T12:48:56.868Z,73.37
2022-12-31T12:52:08.769Z,76.35
2022-12-31T12:55:25.524Z,74.45
2022-12-31T12:58:35.873Z,79.55
2022-12-31T13:01:47.870Z,66.35
2022-12-31T13:05:20.498Z,53.45
2022-12-31T13:08:46.079Z,53.53
2022-12-31T13:12:10.125Z,53.72
2022-12-31T13:15:11.679Z,51.70
2022-12-31T13:18:29.678Z,48.97
2022-12-31T13:25:19.435Z,42.95
2022-12-31T13:28:24.628Z,48.00
2022-12-31T13:31:36.581Z,88.00
2022-12-31T13:34:42.410Z,56.10
2022-12-31T13:37:45.547Z,57.60
2022-12-31T13:40:50.196Z,52.38
2022-12-31T13:44:19.577Z,54.00
2022-12-31T13:47:33.690Z,44.08
2022-12-31T13:50:47.947Z,57.58
2022-12-31T13:53:59.979Z,60.12
2022-12-31T13:57:09.058Z,65.95
2022-12-31T14:00:26.614Z,52.58
2022-12-31T14:03:46.095Z,46.35
2022-12-31T14:06:58.323Z,45.10
2022-12-31T14:10:00.009Z,40.10
2022-12-31T14:13:20.868Z,41.20
2022-12-31T14:16:36.962Z,52.42
2022-12-31T14:19:44.746Z,69.12
2022-12-31T14:22:55.438Z,71.10
2022-12-31T14:26:05.691Z,49.20
2022-12-31T14:29:07.319Z,46.85
2022-12-31T14:32:18.025Z,50.72
2022-12-31T14:35:35.109Z,46.10
2022-12-31T14:38:45.112Z,36.77
2022-12-31T14:41:56.183Z,65.80
2022-12-31T14:45:16.992Z,46.90
2022-12-31T14:48:22.304Z,44.13
2022-12-31T14:51:29.264Z,49.90
2022-12-31T14:54:38.472Z,57.03
2022-12-31T14:58:25.344Z,44.72
2022-12-31T15:01:08.622Z,94.43
2022-12-31T15:04:15.164Z,62.47
2022-12-31T15:07:27.061Z,68.57
2022-12-31T15:11:04.969Z,67.37
2022-12-31T15:14:44.415Z,86.68
2022-12-31T15:18:11.097Z,79.15
2022-12-31T15:21:51.603Z,67.85
2022-12-31T15:24:53.307Z,128.85
2022-12-31T15:27:57.899Z,106.45
2022-12-31T15:31:04.753Z,52.03
2022-12-31T15:34:23.602Z,59.10
2022-12-31T15:37:34.325Z,63.45
2022-12-31T15:40:47.055Z,61.25
2022-12-31T15:44:09.767Z,89.82
2022-12-31T15:47:25.805Z,71.68
2022-12-31T15:50:29.248Z,63.60
2022-12-31T15:53:53.349Z,109.20
2022-12-31T15:56:55.024Z,70.78
2022-12-31T16:00:01.401Z,53.80
2022-12-31T16:03:03.592Z,58.25
2022-12-31T16:06:13.776Z,96.30
2022-12-31T16:09:25.513Z,71.90
2022-12-31T16:12:34.451Z,67.30
2022-12-31T16:15:39.123Z,54.55
2022-12-31T16:18:43.359Z,55.85
2022-12-31T16:21:45.855Z,73.12
2022-12-31T16:25:28.929Z,67.68
2022-12-31T16:31:28.810Z,75.43
2022-12-31T16:34:36.977Z,105.10
2022-12-31T16:37:38.636Z,162.75
2022-12-31T16:40:42.920Z,134.07
2022-12-31T16:43:47.120Z,81.10
2022-12-31T16:46:50.078Z,129.52
2022-12-31T16:50:20.452Z,103.07
2022-12-31T16:53:26.566Z,106.28
2022-12-31T16:56:38.347Z,138.05
2022-12-31T16:59:44.742Z,134.68
2022-12-31T17:03:20.388Z,144.70
2022-12-31T17:06:23.238Z,137.05
2022-12-31T17:09:36.581Z,148.98
2022-12-31T17:13:25.378Z,152.93
2022-12-31T17:19:31.144Z,116.20
2022-12-31T17:22:42.434Z,133.45
2022-12-31T17:25:44.074Z,119.03
2022-12-31T17:28:51.729Z,117.60
2022-12-31T17:32:00.671Z,117.13
2022-12-31T17:35:02.794Z,133.00
2022-12-31T17:38:22.627Z,137.15
2022-12-31T17:41:27.379Z,151.27
2022-12-31T17:44:29.430Z,159.82
2022-12-31T17:47:40.117Z,123.57
2022-12-31T17:50:50.962Z,115.68
2022-12-31T17:53:52.737Z,114.82
2022-12-31T17:56:54.454Z,106.18
2022-12-31T17:59:56.420Z,103.43
2022-12-31T18:02:58.111Z,136.65
2022-12-31T18:05:59.859Z,154.00
2022-12-31T18:09:01.552Z,138.73
2022-12-31T18:12:05.877Z,126.53
2022-12-31T18:15:07.934Z,112.62
2022-12-31T18:18:30.645Z,187.48
2022-12-31T18:21:36.192Z,171.50
2022-12-31T18:24:37.893Z,149.12
2022-12-31T18:27:42.059Z,138.05
2022-12-31T18:30:45.855Z,134.37
2022-12-31T18:33:50.139Z,150.75
2022-12-31T18:36:51.796Z,149.55
2022-12-31T18:39:53.561Z,151.93
2022-12-31T18:42:58.461Z,153.75
2022-12-31T18:46:04.687Z,152.50
2022-12-31T18:49:06.361Z,151.20
2022-12-31T18:52:16.431Z,157.75
2022-12-31T18:55:40.790Z,157.00
2022-12-31T18:58:42.972Z,149.57
2022-12-31T19:01:44.710Z,146.10
2022-12-31T19:04:47.616Z,155.27
2022-12-31T19:07:49.287Z,158.45
2022-12-31T19:10:52.330Z,185.23
2022-12-31T19:13:53.994Z,168.25
2022-12-31T19:16:57.103Z,133.30
2022-12-31T19:20:04.252Z,115.00
2022-12-31T19:23:06.005Z,129.30
2022-12-31T19:26:07.654Z,127.90
2022-12-31T19:29:21.354Z,117.18
2022-12-31T19:32:23.017Z,119.55
2022-12-31T19:35:25.246Z,155.43
2022-12-31T19:38:29.114Z,172.80
2022-12-31T19:41:31.194Z,162.50
2022-12-31T19:44:32.824Z,135.48
2022-12-31T19:47:34.470Z,135.75
2022-12-31T19:50:36.189Z,133.85
2022-12-31T19:53:38.299Z,173.77
2022-12-31T19:56:40.188Z,146.45
2022-12-31T19:59:41.847Z,133.37
2022-12-31T20:02:46.287Z,135.07
2022-12-31T20:05:48.108Z,137.48
2022-12-31T20:08:49.773Z,171.95
2022-12-31T20:11:51.474Z,170.10
2022-12-31T20:14:53.136Z,172.57
2022-12-31T20:17:57.777Z,150.20
2022-12-31T20:20:59.425Z,139.15
2022-12-31T20:24:01.170Z,137.60
2022-12-31T20:27:03.162Z,143.07
2022-12-31T20:30:05.354Z,158.15
2022-12-31T20:33:07.002Z,170.73
2022-12-31T20:36:11.202Z,183.05
2022-12-31T20:39:13.002Z,157.32
2022-12-31T20:42:14.649Z,128.68
2022-12-31T20:45:16.363Z,129.80
2022-12-31T20:48:18.021Z,126.47
2022-12-31T20:51:22.259Z,143.10
2022-12-31T20:54:23.906Z,121.30
2022-12-31T20:57:28.820Z,114.80
2022-12-31T21:00:34.924Z,115.47
2022-12-31T21:07:00.639Z,93.87
2022-12-31T21:10:02.328Z,103.75
2022-12-31T21:13:03.996Z,107.22
2022-12-31T21:16:05.860Z,105.82
2022-12-31T21:19:07.720Z,104.85
2022-12-31T21:22:09.444Z,104.00
2022-12-31T21:25:11.264Z,126.95
2022-12-31T21:28:13.289Z,98.93
2022-12-31T21:31:15.439Z,131.27
2022-12-31T21:34:17.245Z,187.65
2022-12-31T21:37:18.880Z,196.95
2022-12-31T21:40:20.568Z,186.30
2022-12-31T21:43:22.214Z,172.77
2022-12-31T21:46:24.011Z,165.35
2022-12-31T21:49:25.702Z,175.48
2022-12-31T21:52:27.387Z,454.40
2022-12-31T21:55:47.962Z,418.95
2022-12-31T21:59:16.904Z,250.07
2022-12-31T22:02:38.217Z,238.10
2022-12-31T22:05:50.581Z,200.65
2022-12-31T22:08:55.059Z,199.82
2022-12-31T22:11:56.712Z,180.68
2022-12-31T22:15:14.750Z,184.07
2022-12-31T22:18:18.042Z,189.60
2022-12-31T22:21:22.108Z,201.65
2022-12-31T22:24:23.803Z,194.87
2022-12-31T22:27:28.216Z,215.00
2022-12-31T22:30:31.333Z,167.10
2022-12-31T22:33:33.052Z,149.57
2022-12-31T22:36:34.741Z,125.00
2022-12-31T22:39:44.141Z,160.10
2022-12-31T22:42:46.577Z,146.90
2022-12-31T22:45:48.269Z,219.15
2022-12-31T22:48:50.906Z,191.07
2022-12-31T22:51:56.903Z,219.45
2022-12-31T22:55:00.547Z,221.80
2022-12-31T22:58:02.382Z,218.32
2022-12-31T23:01:06.171Z,178.62
2022-12-31T23:04:07.994Z,169.35
2022-12-31T23:07:09.680Z,152.15
2022-12-31T23:10:30.013Z,114.85
2022-12-31T23:13:57.091Z,97.32
2022-12-31T23:17:31.055Z,132.35
2022-12-31T23:20:52.446Z,152.45
2022-12-31T23:23:54.094Z,156.10
2022-12-31T23:26:57.126Z,137.07
2022-12-31T23:29:58.817Z,130.87
2022-12-31T23:33:00.551Z,159.23
2022-12-31T23:36:06.543Z,140.27
2022-12-31T23:39:08.400Z,186.18
2022-12-31T23:42:10.180Z,199.32
2022-12-31T23:45:11.819Z,198.85
2022-12-31T23:48:13.483Z,210.30
2022-12-31T23:51:15.205Z,268.35
2022-12-31T23:54:17.886Z,177.43
2022-12-31T23:57:19.760Z,202.52
